createdAt,value
2023-01-19T00:01:31.736Z,4.38
2023-01-19T00:04:01.529Z,4.36
2023-01-19T00:06:31.883Z,4.21
2023-01-19T00:08:59.767Z,4.29
2023-01-19T00:11:27.373Z,4.28
2023-01-19T00:13:55.009Z,4.26
2023-01-19T00:16:23.560Z,4.29
2023-01-19T00:18:53.269Z,4.27
2023-01-19T00:21:23.381Z,4.25
2023-01-19T00:23:53.499Z,4.23
2023-01-19T00:26:23.820Z,4.26
2023-01-19T00:28:53.886Z,4.27
2023-01-19T00:31:21.921Z,4.24
2023-01-19T00:33:51.720Z,4.22
2023-01-19T00:36:19.694Z,4.17
2023-01-19T00:38:47.324Z,4.13
2023-01-19T00:41:16.766Z,4.11
2023-01-19T00:43:43.682Z,4.12
2023-01-19T00:46:11.392Z,4.14
2023-01-19T00:48:39.038Z,4.11
2023-01-19T00:51:06.748Z,4.11
2023-01-19T00:53:36.659Z,4.10
2023-01-19T00:56:04.319Z,4.08
2023-01-19T00:58:31.886Z,4.07
2023-01-19T01:01:03.619Z,4.05
2023-01-19T01:03:31.492Z,4.04
2023-01-19T01:06:03.645Z,4.06
2023-01-19T01:08:33.688Z,4.01
2023-01-19T01:11:02.190Z,4.01
2023-01-19T01:13:30.073Z,3.94
2023-01-19T01:15:58.101Z,3.95
2023-01-19T01:18:26.074Z,3.85
2023-01-19T01:20:56.056Z,3.87
2023-01-19T01:23:24.038Z,3.81
2023-01-19T01:25:51.649Z,3.83
2023-01-19T01:28:19.276Z,3.81
2023-01-19T01:30:46.895Z,3.77
2023-01-19T01:33:41.128Z,3.77
2023-01-19T01:36:07.824Z,3.76
2023-01-19T01:38:35.449Z,3.75
2023-01-19T01:41:03.202Z,3.74
2023-01-19T01:43:53.531Z,3.75
2023-01-19T01:46:21.483Z,3.72
2023-01-19T01:49:04.232Z,3.71
2023-01-19T01:51:49.682Z,3.73
2023-01-19T01:54:20.654Z,3.71
2023-01-19T01:57:00.280Z,3.70
2023-01-19T01:59:39.231Z,3.67
2023-01-19T02:02:28.077Z,3.66
2023-01-19T02:05:04.118Z,3.67
2023-01-19T02:07:59.491Z,3.66
2023-01-19T02:10:44.852Z,3.66
2023-01-19T02:13:19.827Z,3.67
2023-01-19T02:15:52.836Z,3.66
2023-01-19T02:18:23.137Z,3.64
2023-01-19T02:21:27.714Z,3.63
2023-01-19T02:23:57.677Z,3.58
2023-01-19T02:26:38.918Z,3.56
2023-01-19T02:29:10.499Z,3.49
2023-01-19T02:31:40.168Z,3.52
2023-01-19T02:37:13.773Z,3.51
2023-01-19T02:39:50.793Z,3.49
2023-01-19T02:42:25.275Z,3.44
2023-01-19T02:44:55.515Z,3.42
2023-01-19T02:47:23.866Z,3.41
2023-01-19T02:50:01.727Z,3.38
2023-01-19T02:52:29.727Z,3.37
2023-01-19T02:55:03.929Z,3.32
2023-01-19T02:58:32.993Z,3.30
2023-01-19T03:01:39.707Z,3.28
2023-01-19T03:04:35.899Z,3.26
2023-01-19T03:07:03.433Z,3.22
2023-01-19T03:09:43.536Z,3.22
2023-01-19T03:12:34.328Z,3.19
2023-01-19T03:15:14.484Z,3.17
2023-01-19T03:17:45.790Z,3.14
2023-01-19T03:20:16.824Z,3.14
2023-01-19T03:22:45.595Z,3.12
2023-01-19T03:25:16.948Z,3.09
2023-01-19T03:27:47.932Z,3.08
2023-01-19T03:30:25.244Z,3.07
2023-01-19T03:32:59.889Z,3.05
2023-01-19T03:35:32.781Z,3.02
2023-01-19T03:38:03.952Z,3.02
2023-01-19T03:40:33.709Z,3.02
2023-01-19T03:43:03.734Z,3.00
2023-01-19T03:45:35.616Z,2.97
2023-01-19T03:48:03.930Z,2.97
2023-01-19T03:50:32.122Z,2.96
2023-01-19T03:53:14.874Z,2.94
2023-01-19T03:55:45.742Z,2.95
2023-01-19T03:58:13.304Z,2.96
2023-01-19T04:00:41.785Z,2.95
2023-01-19T04:03:22.188Z,2.94
2023-01-19T04:05:51.869Z,2.96
2023-01-19T04:08:19.617Z,2.89
2023-01-19T04:10:47.253Z,2.91
2023-01-19T04:13:15.261Z,2.88
2023-01-19T04:15:42.962Z,2.84
2023-01-19T04:18:13.079Z,2.78
2023-01-19T04:20:40.729Z,2.83
2023-01-19T04:23:09.705Z,2.83
2023-01-19T04:25:40.392Z,2.80
2023-01-19T04:28:07.969Z,2.78
2023-01-19T04:30:37.707Z,2.77
2023-01-19T04:33:05.385Z,2.76
2023-01-19T04:35:34.292Z,2.74
2023-01-19T04:38:01.917Z,2.71
2023-01-19T04:40:33.226Z,2.70
2023-01-19T04:43:01.168Z,2.67
2023-01-19T04:45:29.128Z,2.69
2023-01-19T04:47:56.706Z,2.65
2023-01-19T04:50:27.846Z,2.64
2023-01-19T04:52:55.442Z,2.62
2023-01-19T04:55:23.536Z,2.58
2023-01-19T04:57:51.119Z,2.60
2023-01-19T05:00:19.292Z,2.63
2023-01-19T05:02:48.648Z,2.63
2023-01-19T05:05:18.314Z,2.63
2023-01-19T05:07:46.951Z,2.63
2023-01-19T05:10:14.569Z,2.59
2023-01-19T05:12:42.574Z,2.61
2023-01-19T05:15:11.274Z,2.56
2023-01-19T05:17:39.011Z,2.60
2023-01-19T05:20:07.228Z,2.58
2023-01-19T05:22:34.888Z,2.57
2023-01-19T05:25:02.889Z,2.54
2023-01-19T05:27:30.484Z,2.53
2023-01-19T05:29:58.186Z,2.53
2023-01-19T05:32:28.160Z,2.49
2023-01-19T05:34:55.740Z,2.48
2023-01-19T05:37:23.476Z,2.45
2023-01-19T05:39:51.109Z,2.44
2023-01-19T05:42:18.711Z,2.42
2023-01-19T05:44:46.319Z,2.46
2023-01-19T05:47:14.087Z,2.50
2023-01-19T05:49:41.666Z,2.52
2023-01-19T05:52:09.293Z,2.55
2023-01-19T05:54:37.617Z,2.59
2023-01-19T05:57:06.213Z,2.61
2023-01-19T05:59:33.827Z,2.66
2023-01-19T06:02:01.478Z,2.69
2023-01-19T06:04:29.282Z,2.70
2023-01-19T06:06:57.870Z,2.72
2023-01-19T06:09:27.914Z,2.71
2023-01-19T06:11:56.598Z,2.74
2023-01-19T06:14:27.715Z,2.74
2023-01-19T06:16:57.849Z,2.75
2023-01-19T06:19:25.577Z,2.74
2023-01-19T06:21:53.352Z,2.74
2023-01-19T06:24:24.042Z,2.73
2023-01-19T06:26:52.124Z,2.73
2023-01-19T06:29:19.952Z,2.73
2023-01-19T06:31:47.503Z,2.88
2023-01-19T06:34:15.398Z,3.23
2023-01-19T06:36:43.659Z,3.14
2023-01-19T06:39:11.313Z,2.91
2023-01-19T06:41:39.688Z,2.83
2023-01-19T06:44:12.242Z,2.79
2023-01-19T06:46:42.227Z,2.75
2023-01-19T06:49:09.979Z,2.76
2023-01-19T06:51:37.603Z,2.75
2023-01-19T06:54:05.767Z,2.77
2023-01-19T06:56:35.811Z,2.76
2023-01-19T06:59:03.880Z,2.75
2023-01-19T07:01:32.852Z,2.78
2023-01-19T07:04:00.652Z,2.79
2023-01-19T07:06:31.173Z,2.80
2023-01-19T07:09:04.782Z,2.82
2023-01-19T07:11:32.622Z,2.82
2023-01-19T07:14:03.493Z,2.83
2023-01-19T07:16:31.272Z,2.84
2023-01-19T07:18:58.904Z,2.83
2023-01-19T07:21:29.126Z,2.86
2023-01-19T07:23:57.200Z,2.89
2023-01-19T07:26:27.904Z,2.88
2023-01-19T07:28:55.671Z,2.91
2023-01-19T07:31:23.379Z,2.93
2023-01-19T07:33:51.075Z,2.98
2023-01-19T07:36:18.719Z,2.99
2023-01-19T07:38:48.830Z,3.03
2023-01-19T07:41:16.585Z,3.03
2023-01-19T07:43:44.137Z,3.06
2023-01-19T07:46:11.922Z,3.08
2023-01-19T07:48:39.935Z,3.12
2023-01-19T07:51:12.961Z,3.13
2023-01-19T07:53:43.212Z,3.14
2023-01-19T07:56:14.702Z,3.17
2023-01-19T07:58:45.834Z,3.14
2023-01-19T08:01:16.946Z,3.23
2023-01-19T08:03:44.992Z,3.25
2023-01-19T08:06:28.876Z,3.26
2023-01-19T08:08:56.597Z,3.27
2023-01-19T08:11:24.568Z,3.32
2023-01-19T08:13:52.407Z,3.34
2023-01-19T08:16:20.153Z,3.37
2023-01-19T08:18:47.827Z,3.38
2023-01-19T08:21:15.597Z,3.41
2023-01-19T08:23:43.454Z,3.42
2023-01-19T08:26:29.268Z,3.47
2023-01-19T08:29:02.257Z,3.50
2023-01-19T08:31:31.317Z,3.54
2023-01-19T08:34:00.318Z,3.54
2023-01-19T08:36:30.940Z,3.54
2023-01-19T08:39:03.705Z,3.55
2023-01-19T08:41:33.545Z,3.55
2023-01-19T08:44:01.259Z,3.65
2023-01-19T08:46:29.193Z,3.65
2023-01-19T08:48:56.950Z,3.63
2023-01-19T08:51:24.958Z,3.62
2023-01-19T08:53:55.101Z,3.62
2023-01-19T08:56:22.903Z,3.58
2023-01-19T08:59:03.432Z,3.56
2023-01-19T09:01:38.155Z,3.59
2023-01-19T09:04:08.651Z,3.60
2023-01-19T09:06:36.294Z,3.58
2023-01-19T09:09:05.292Z,3.56
2023-01-19T09:11:33.270Z,3.50
2023-01-19T09:14:01.021Z,3.51
2023-01-19T09:16:29.479Z,3.50
2023-01-19T09:18:57.420Z,3.50
2023-01-19T09:21:25.152Z,3.49
2023-01-19T09:23:54.867Z,3.53
2023-01-19T09:26:25.154Z,3.55
2023-01-19T09:28:53.035Z,3.59
2023-01-19T09:31:21.518Z,3.62
2023-01-19T09:33:49.450Z,3.64
2023-01-19T09:36:17.176Z,3.71
2023-01-19T09:38:44.939Z,3.77
2023-01-19T09:41:22.904Z,3.79
2023-01-19T09:43:57.877Z,3.86
2023-01-19T09:46:33.964Z,3.89
2023-01-19T09:49:06.771Z,3.96
2023-01-19T09:51:40.737Z,3.91
2023-01-19T09:54:45.676Z,3.94
2023-01-19T09:57:16.087Z,3.89
2023-01-19T09:59:47.838Z,3.89
2023-01-19T10:02:38.156Z,3.80
2023-01-19T10:05:30.739Z,3.76
2023-01-19T10:08:13.477Z,3.66
2023-01-19T10:10:46.589Z,3.62
2023-01-19T10:13:35.055Z,3.58
2023-01-19T10:16:11.852Z,3.50
2023-01-19T10:18:47.519Z,3.48
2023-01-19T10:21:24.062Z,3.48
2023-01-19T10:24:12.914Z,3.44
2023-01-19T10:26:52.825Z,3.41
2023-01-19T10:29:39.105Z,3.41
2023-01-19T10:32:13.412Z,3.37
2023-01-19T10:34:43.756Z,3.34
2023-01-19T10:37:34.135Z,3.33
2023-01-19T10:40:11.077Z,3.24
2023-01-19T10:42:41.470Z,3.23
2023-01-19T10:45:25.132Z,3.22
2023-01-19T10:47:54.963Z,3.20
2023-01-19T10:50:34.809Z,3.20
2023-01-19T10:53:05.807Z,3.19
2023-01-19T10:55:43.101Z,3.14
2023-01-19T10:58:31.456Z,3.12
2023-01-19T11:01:16.217Z,3.06
2023-01-19T11:03:46.685Z,3.08
2023-01-19T11:06:22.404Z,3.08
2023-01-19T11:08:52.536Z,3.13
2023-01-19T11:11:22.313Z,3.09
2023-01-19T11:14:09.576Z,3.04
2023-01-19T11:16:40.051Z,3.10
2023-01-19T11:19:22.369Z,3.12
2023-01-19T11:21:50.105Z,3.12
2023-01-19T11:24:18.262Z,3.10
2023-01-19T11:27:13.404Z,3.10
2023-01-19T11:29:57.391Z,3.09
2023-01-19T11:35:04.157Z,3.16
2023-01-19T11:37:35.189Z,3.19
2023-01-19T11:40:14.353Z,3.17
2023-01-19T11:42:42.189Z,3.19
2023-01-19T11:45:18.929Z,3.30
2023-01-19T11:47:49.705Z,3.36
2023-01-19T11:50:34.552Z,3.42
2023-01-19T11:53:14.387Z,3.53
2023-01-19T11:55:45.212Z,3.60
2023-01-19T11:58:18.536Z,3.51
2023-01-19T12:01:14.025Z,3.65
2023-01-19T12:03:50.101Z,3.64
2023-01-19T12:06:31.172Z,3.65
2023-01-19T12:09:22.728Z,3.60
2023-01-19T12:11:59.635Z,3.63
2023-01-19T12:14:56.918Z,3.59
2023-01-19T12:17:31.288Z,3.55
2023-01-19T12:20:15.828Z,3.58
2023-01-19T12:22:51.755Z,3.51
2023-01-19T12:25:33.248Z,3.49
2023-01-19T12:28:01.473Z,3.50
2023-01-19T12:30:31.342Z,3.50
2023-01-19T12:33:33.307Z,3.45
2023-01-19T12:36:27.728Z,3.40
2023-01-19T12:38:58.007Z,3.44
2023-01-19T12:41:39.339Z,3.43
2023-01-19T12:44:14.607Z,3.42
2023-01-19T12:47:24.323Z,3.43
2023-01-19T12:49:56.608Z,3.39
2023-01-19T12:52:30.881Z,3.34
2023-01-19T12:55:01.530Z,3.29
2023-01-19T12:57:48.162Z,3.24
2023-01-19T13:00:31.012Z,3.23
2023-01-19T13:03:01.586Z,3.19
2023-01-19T13:05:33.092Z,3.15
2023-01-19T13:08:04.816Z,3.21
2023-01-19T13:11:00.708Z,3.27
2023-01-19T13:13:36.913Z,3.29
2023-01-19T13:16:20.099Z,3.30
2023-01-19T13:19:18.174Z,3.29
2023-01-19T13:21:48.784Z,3.30
2023-01-19T13:24:20.919Z,3.12
2023-01-19T13:26:51.744Z,3.11
2023-01-19T13:29:42.439Z,3.04
2023-01-19T13:32:19.431Z,2.99
2023-01-19T13:35:02.155Z,3.01
2023-01-19T13:37:39.886Z,3.02
2023-01-19T13:40:12.989Z,3.08
2023-01-19T13:42:42.981Z,3.00
2023-01-19T13:45:19.701Z,3.05
2023-01-19T13:47:52.948Z,3.05
2023-01-19T13:50:32.761Z,3.02
2023-01-19T13:53:01.458Z,3.05
2023-01-19T13:55:32.788Z,2.96
2023-01-19T13:58:01.491Z,2.98
2023-01-19T14:00:34.124Z,2.81
2023-01-19T14:03:21.477Z,2.83
2023-01-19T14:05:57.009Z,2.84
2023-01-19T14:08:25.707Z,2.78
2023-01-19T14:10:53.362Z,2.77
2023-01-19T14:13:25.078Z,2.74
2023-01-19T14:15:57.123Z,2.70
2023-01-19T14:18:31.232Z,2.71
2023-01-19T14:21:06.137Z,2.74
2023-01-19T14:23:45.025Z,2.77
2023-01-19T14:26:42.542Z,2.72
2023-01-19T14:29:32.768Z,2.69
2023-01-19T14:32:08.326Z,2.66
2023-01-19T14:34:46.924Z,2.69
2023-01-19T14:37:19.877Z,2.72
2023-01-19T14:39:51.982Z,2.75
2023-01-19T14:42:27.666Z,2.81
2023-01-19T14:45:00.764Z,2.89
2023-01-19T14:47:46.395Z,2.88
2023-01-19T14:50:33.033Z,2.78
2023-01-19T14:53:07.429Z,2.82
2023-01-19T14:55:47.626Z,2.74
2023-01-19T14:58:17.976Z,2.70
2023-01-19T15:00:46.811Z,2.65
2023-01-19T15:03:18.590Z,2.62
2023-01-19T15:05:48.184Z,2.54
2023-01-19T15:08:23.038Z,2.49
2023-01-19T15:10:50.862Z,2.48
2023-01-19T15:13:28.256Z,2.44
2023-01-19T15:15:55.969Z,2.47
2023-01-19T15:18:28.012Z,2.47
2023-01-19T15:21:02.744Z,2.42
2023-01-19T15:23:34.031Z,2.29
2023-01-19T15:26:05.851Z,2.24
2023-01-19T15:28:38.348Z,2.13
2023-01-19T15:31:06.199Z,2.05
2023-01-19T15:33:34.481Z,2.07
2023-01-19T15:36:02.165Z,2.05
2023-01-19T15:38:32.769Z,2.03
2023-01-19T15:41:02.971Z,2.01
2023-01-19T15:43:33.027Z,2.06
2023-01-19T15:46:02.788Z,2.12
2023-01-19T15:48:30.451Z,2.13
2023-01-19T15:51:00.467Z,2.10
2023-01-19T15:53:29.515Z,2.14
2023-01-19T15:55:57.471Z,2.15
2023-01-19T15:58:28.047Z,2.13
2023-01-19T16:00:57.831Z,2.19
2023-01-19T16:03:27.032Z,2.17
2023-01-19T16:05:55.096Z,2.19
2023-01-19T16:08:22.782Z,2.20
2023-01-19T16:10:50.975Z,2.17
2023-01-19T16:13:20.629Z,2.13
2023-01-19T16:15:48.346Z,2.13
2023-01-19T16:18:16.387Z,2.10
2023-01-19T16:20:46.454Z,2.05
2023-01-19T16:23:15.362Z,2.05
2023-01-19T16:25:43.386Z,2.09
2023-01-19T16:28:11.295Z,2.08
2023-01-19T16:30:38.949Z,2.07
2023-01-19T16:33:11.750Z,2.08
2023-01-19T16:35:41.779Z,2.10
2023-01-19T16:38:09.798Z,2.10
2023-01-19T16:40:37.831Z,2.05
2023-01-19T16:43:06.626Z,2.06
2023-01-19T16:45:56.170Z,2.10
2023-01-19T16:48:23.761Z,2.10
2023-01-19T16:51:06.394Z,2.14
2023-01-19T16:53:35.562Z,2.14
2023-01-19T16:56:08.178Z,2.12
2023-01-19T16:58:38.289Z,2.11
2023-01-19T17:01:19.889Z,2.13
2023-01-19T17:03:47.887Z,2.08
2023-01-19T17:06:18.606Z,2.00
2023-01-19T17:08:46.265Z,2.03
2023-01-19T17:11:22.715Z,1.98
2023-01-19T17:14:02.401Z,1.99
2023-01-19T17:16:33.604Z,1.98
2023-01-19T17:19:04.434Z,1.98
2023-01-19T17:21:35.233Z,1.96
2023-01-19T17:24:03.221Z,1.96
2023-01-19T17:26:32.149Z,1.92
2023-01-19T17:29:06.040Z,1.92
2023-01-19T17:31:34.821Z,1.91
2023-01-19T17:34:02.842Z,1.89
2023-01-19T17:36:31.866Z,1.90
2023-01-19T17:39:01.623Z,1.83
2023-01-19T17:41:36.023Z,1.81
2023-01-19T17:44:05.378Z,1.79
2023-01-19T17:46:35.683Z,1.76
2023-01-19T17:49:09.395Z,1.73
2023-01-19T17:51:37.616Z,1.71
2023-01-19T17:54:05.294Z,1.67
2023-01-19T17:56:38.678Z,1.67
2023-01-19T17:59:08.186Z,1.66
2023-01-19T18:01:39.817Z,1.67
2023-01-19T18:04:10.712Z,1.72
2023-01-19T18:06:41.234Z,1.74
2023-01-19T18:09:09.131Z,1.76
2023-01-19T18:11:37.264Z,1.79
2023-01-19T18:14:07.355Z,1.78
2023-01-19T18:16:36.141Z,1.77
2023-01-19T18:19:03.818Z,1.80
2023-01-19T18:21:31.424Z,1.81
2023-01-19T18:24:02.134Z,1.76
2023-01-19T18:26:31.364Z,1.77
2023-01-19T18:28:59.921Z,1.75
2023-01-19T18:31:31.365Z,1.68
2023-01-19T18:33:59.045Z,1.62
2023-01-19T18:36:27.890Z,1.61
2023-01-19T18:38:55.510Z,1.60
2023-01-19T18:41:25.666Z,1.55
2023-01-19T18:43:58.256Z,1.47
2023-01-19T18:46:27.792Z,1.45
2023-01-19T18:48:55.490Z,1.41
2023-01-19T18:51:23.088Z,1.38
2023-01-19T18:53:50.730Z,1.35
2023-01-19T18:56:18.385Z,1.31
2023-01-19T18:58:46.311Z,1.25
2023-01-19T19:01:34.985Z,1.27
2023-01-19T19:04:05.542Z,1.26
2023-01-19T19:06:34.141Z,1.28
2023-01-19T19:09:05.241Z,1.30
2023-01-19T19:11:32.970Z,1.33
2023-01-19T19:14:02.878Z,1.39
2023-01-19T19:16:33.355Z,1.35
2023-01-19T19:19:02.796Z,1.43
2023-01-19T19:21:30.372Z,1.42
2023-01-19T19:23:59.172Z,1.44
2023-01-19T19:26:28.647Z,1.45
2023-01-19T19:28:58.689Z,1.47
2023-01-19T19:31:29.886Z,1.47
2023-01-19T19:33:58.827Z,1.48
2023-01-19T19:36:31.917Z,1.45
2023-01-19T19:39:00.693Z,1.43
2023-01-19T19:41:32.303Z,1.43
2023-01-19T19:44:02.923Z,1.42
2023-01-19T19:46:30.571Z,1.45
2023-01-19T19:48:58.218Z,1.41
2023-01-19T19:51:30.787Z,1.42
2023-01-19T19:54:05.600Z,1.42
2023-01-19T19:56:35.890Z,1.43
2023-01-19T19:59:03.490Z,1.43
2023-01-19T20:01:34.537Z,1.42
2023-01-19T20:04:08.281Z,1.44
2023-01-19T20:06:38.972Z,1.43
2023-01-19T20:09:14.124Z,1.43
2023-01-19T20:11:45.070Z,1.45
2023-01-19T20:14:16.704Z,1.43
2023-01-19T20:16:45.046Z,1.39
2023-01-19T20:19:15.019Z,1.40
2023-01-19T20:21:43.388Z,1.39
2023-01-19T20:24:17.150Z,1.37
2023-01-19T20:26:48.139Z,1.37
2023-01-19T20:29:19.339Z,1.32
2023-01-19T20:31:50.935Z,1.28
2023-01-19T20:34:23.456Z,1.28
2023-01-19T20:36:53.449Z,1.27
2023-01-19T20:39:24.531Z,1.28
2023-01-19T20:41:52.767Z,1.27
2023-01-19T20:44:23.497Z,1.29
2023-01-19T20:46:53.390Z,1.26
2023-01-19T20:49:22.497Z,1.28
2023-01-19T20:51:51.875Z,1.31
2023-01-19T20:54:21.851Z,1.30
2023-01-19T20:56:51.981Z,1.31
2023-01-19T20:59:21.752Z,1.29
2023-01-19T21:01:51.968Z,1.31
2023-01-19T21:04:19.694Z,1.31
2023-01-19T21:06:47.678Z,1.28
2023-01-19T21:09:16.522Z,1.23
2023-01-19T21:11:44.177Z,1.19
2023-01-19T21:14:11.787Z,1.13
2023-01-19T21:16:39.892Z,1.15
2023-01-19T21:19:07.920Z,1.14
2023-01-19T21:21:39.913Z,1.18
2023-01-19T21:24:07.663Z,1.16
2023-01-19T21:26:35.897Z,1.14
2023-01-19T21:29:04.518Z,1.17
2023-01-19T21:31:32.396Z,1.16
2023-01-19T21:34:00.053Z,1.16
2023-01-19T21:36:28.076Z,1.13
2023-01-19T21:39:00.468Z,1.12
2023-01-19T21:41:30.967Z,1.09
2023-01-19T21:43:59.922Z,1.16
2023-01-19T21:46:30.475Z,1.15
2023-01-19T21:49:00.091Z,1.18
2023-01-19T21:51:29.313Z,1.18
2023-01-19T21:53:59.650Z,1.16
2023-01-19T21:56:30.932Z,1.23
2023-01-19T21:59:03.092Z,1.26
2023-01-19T22:01:34.684Z,1.26
2023-01-19T22:04:02.391Z,1.30
2023-01-19T22:06:32.826Z,1.31
2023-01-19T22:09:00.792Z,1.25
2023-01-19T22:11:30.020Z,1.30
2023-01-19T22:13:59.582Z,1.33
2023-01-19T22:16:28.768Z,1.31
2023-01-19T22:19:01.971Z,1.27
2023-01-19T22:21:35.535Z,1.25
2023-01-19T22:24:04.825Z,1.26
2023-01-19T22:26:34.106Z,1.19
2023-01-19T22:29:03.110Z,1.26
2023-01-19T22:31:31.105Z,1.26
2023-01-19T22:33:59.489Z,1.25
2023-01-19T22:36:31.401Z,1.22
2023-01-19T22:39:01.617Z,1.15
2023-01-19T22:41:33.903Z,1.14
2023-01-19T22:44:03.821Z,1.15
2023-01-19T22:46:34.426Z,1.18
2023-01-19T22:49:02.961Z,1.21
2023-01-19T22:51:31.728Z,1.19
2023-01-19T22:54:01.988Z,1.16
2023-01-19T22:56:31.637Z,1.16
2023-01-19T22:59:00.204Z,1.17
2023-01-19T23:01:40.132Z,1.18
2023-01-19T23:04:10.868Z,1.19
2023-01-19T23:06:39.379Z,1.13
2023-01-19T23:09:12.470Z,1.05
2023-01-19T23:11:42.651Z,0.95
2023-01-19T23:14:14.838Z,0.90
2023-01-19T23:16:42.611Z,0.88
2023-01-19T23:19:12.466Z,0.83
2023-01-19T23:21:40.549Z,0.83
2023-01-19T23:24:08.550Z,0.87
2023-01-19T23:26:39.156Z,0.83
2023-01-19T23:29:12.739Z,0.86
2023-01-19T23:31:43.818Z,0.84
2023-01-19T23:34:13.190Z,0.85
2023-01-19T23:36:46.210Z,0.77
2023-01-19T23:39:17.238Z,0.78
2023-01-19T23:41:45.252Z,0.77
2023-01-19T23:44:12.942Z,0.78
2023-01-19T23:46:43.865Z,0.76
2023-01-19T23:49:11.939Z,0.76
2023-01-19T23:51:40.718Z,0.78
2023-01-19T23:54:08.767Z,0.76
2023-01-19T23:56:38.772Z,0.73
2023-01-19T23:59:12.684Z,0.70
